createdAt,value
2023-10-03T00:00:54.909Z,13.93
2023-10-03T00:03:31.731Z,13.82
2023-10-03T00:06:11.163Z,14.20
2023-10-03T00:08:49.726Z,14.48
2023-10-03T00:11:30.427Z,13.85
2023-10-03T00:14:01.408Z,13.98
2023-10-03T00:16:41.468Z,13.68
2023-10-03T00:19:13.282Z,13.98
2023-10-03T00:21:58.267Z,13.48
2023-10-03T00:24:36.270Z,14.55
2023-10-03T00:27:15.647Z,14.00
2023-10-03T00:29:47.511Z,13.65
2023-10-03T00:32:21.538Z,13.65
2023-10-03T00:34:58.237Z,13.77
2023-10-03T00:37:36.576Z,13.65
2023-10-03T00:40:22.645Z,13.73
2023-10-03T00:42:57.545Z,14.30
2023-10-03T00:45:30.952Z,12.95
2023-10-03T00:48:09.977Z,14.35
2023-10-03T00:50:46.850Z,14.70
2023-10-03T00:53:28.507Z,13.57
2023-10-03T00:56:02.670Z,14.48
2023-10-03T00:58:40.364Z,14.02
2023-10-03T01:01:13.567Z,13.85
2023-10-03T01:03:51.661Z,13.40
2023-10-03T01:06:26.320Z,13.82
2023-10-03T01:09:08.385Z,13.55
2023-10-03T01:11:35.651Z,14.95
2023-10-03T01:14:13.493Z,15.23
2023-10-03T01:16:51.788Z,13.70
2023-10-03T01:19:30.706Z,14.55
2023-10-03T01:22:03.577Z,14.32
2023-10-03T01:24:39.349Z,14.60
2023-10-03T01:27:07.328Z,13.50
2023-10-03T01:29:44.632Z,14.65
2023-10-03T01:32:15.011Z,14.27
2023-10-03T01:34:42.993Z,14.80
2023-10-03T01:37:23.331Z,14.20
2023-10-03T01:39:56.560Z,14.95
2023-10-03T01:42:37.415Z,14.50
2023-10-03T01:45:14.559Z,14.80
2023-10-03T01:47:53.551Z,14.95
2023-10-03T01:50:25.160Z,14.13
2023-10-03T01:53:00.538Z,13.57
2023-10-03T01:55:32.861Z,15.18
2023-10-03T01:58:06.485Z,14.95
2023-10-03T02:00:41.012Z,15.60
2023-10-03T02:03:20.624Z,14.27
2023-10-03T02:05:55.177Z,14.23
2023-10-03T02:08:35.554Z,14.93
2023-10-03T02:11:07.593Z,14.07
2023-10-03T02:13:42.542Z,14.27
2023-10-03T02:16:12.354Z,14.18
2023-10-03T02:18:55.243Z,14.45
2023-10-03T02:21:28.960Z,13.20
2023-10-03T02:24:13.094Z,14.00
2023-10-03T02:26:46.780Z,14.10
2023-10-03T02:29:21.445Z,15.70
2023-10-03T02:31:51.300Z,13.93
2023-10-03T02:34:31.605Z,14.25
2023-10-03T02:37:13.953Z,14.32
2023-10-03T02:39:52.521Z,14.20
2023-10-03T02:42:35.574Z,13.23
2023-10-03T02:45:09.635Z,13.68
2023-10-03T02:47:47.421Z,15.15
2023-10-03T02:50:27.778Z,13.88
2023-10-03T02:53:10.308Z,14.07
2023-10-03T02:55:44.700Z,14.68
2023-10-03T02:58:34.584Z,14.55
2023-10-03T03:01:11.593Z,14.82
2023-10-03T03:03:46.701Z,13.90
2023-10-03T03:06:26.945Z,14.00
2023-10-03T03:09:01.795Z,13.75
2023-10-03T03:11:36.554Z,14.40
2023-10-03T03:14:04.257Z,12.95
2023-10-03T03:16:38.496Z,13.18
2023-10-03T03:19:07.009Z,13.18
2023-10-03T03:21:44.510Z,13.63
2023-10-03T03:24:22.640Z,13.82
2023-10-03T03:27:07.140Z,14.20
2023-10-03T03:29:44.649Z,12.77
2023-10-03T03:32:14.989Z,12.43
2023-10-03T03:34:53.536Z,12.85
2023-10-03T03:37:26.586Z,12.68
2023-10-03T03:40:05.520Z,13.48
2023-10-03T03:42:51.328Z,12.23
2023-10-03T03:45:38.444Z,13.35
2023-10-03T03:48:14.844Z,13.10
2023-10-03T03:50:48.771Z,12.93
2023-10-03T03:53:26.570Z,13.05
2023-10-03T03:55:59.679Z,12.45
2023-10-03T03:58:38.534Z,13.20
2023-10-03T04:01:18.250Z,12.48
2023-10-03T04:04:10.693Z,12.10
2023-10-03T04:06:45.750Z,12.60
2023-10-03T04:09:20.813Z,12.27
2023-10-03T04:11:57.720Z,12.15
2023-10-03T04:14:25.571Z,12.20
2023-10-03T04:17:03.560Z,11.90
2023-10-03T04:19:37.934Z,12.23
2023-10-03T04:22:14.656Z,12.60
2023-10-03T04:24:50.489Z,11.93
2023-10-03T04:27:27.100Z,12.05
2023-10-03T04:30:01.593Z,12.20
2023-10-03T04:32:40.242Z,12.15
2023-10-03T04:35:22.761Z,12.27
2023-10-03T04:38:15.258Z,12.32
2023-10-03T04:40:43.115Z,12.18
2023-10-03T04:43:22.653Z,12.32
2023-10-03T04:45:59.723Z,11.90
2023-10-03T04:48:39.775Z,12.00
2023-10-03T04:51:07.404Z,12.02
2023-10-03T04:53:43.144Z,11.05
2023-10-03T04:56:13.322Z,11.90
2023-10-03T04:58:49.628Z,11.50
2023-10-03T05:01:29.824Z,12.35
2023-10-03T05:04:13.968Z,12.23
2023-10-03T05:06:45.053Z,12.48
2023-10-03T05:09:37.575Z,12.32
2023-10-03T05:12:15.627Z,11.20
2023-10-03T05:14:55.972Z,10.68
2023-10-03T05:17:36.537Z,11.52
2023-10-03T05:20:05.316Z,11.57
2023-10-03T05:22:40.571Z,12.00
2023-10-03T05:25:13.197Z,11.18
2023-10-03T05:27:50.685Z,11.63
2023-10-03T05:30:31.084Z,10.70
2023-10-03T05:33:06.730Z,10.35
2023-10-03T05:35:37.616Z,10.77
2023-10-03T05:38:18.913Z,11.02
2023-10-03T05:40:47.856Z,9.82
2023-10-03T05:43:27.633Z,10.63
2023-10-03T05:46:00.278Z,9.90
2023-10-03T05:48:37.394Z,9.48
2023-10-03T05:51:09.654Z,10.10
2023-10-03T05:53:51.397Z,9.77
2023-10-03T05:56:21.393Z,9.02
2023-10-03T05:59:01.920Z,9.23
2023-10-03T06:01:32.683Z,8.80
2023-10-03T06:04:16.672Z,9.48
2023-10-03T06:06:49.529Z,8.55
2023-10-03T06:09:34.086Z,8.63
2023-10-03T06:12:08.824Z,8.02
2023-10-03T06:14:42.472Z,6.85
2023-10-03T06:17:26.320Z,7.07
2023-10-03T06:19:54.377Z,6.57
2023-10-03T06:22:28.749Z,5.63
2023-10-03T06:24:59.054Z,6.03
2023-10-03T06:27:35.937Z,6.30
2023-10-03T06:30:04.163Z,5.45
2023-10-03T06:32:38.721Z,5.60
2023-10-03T06:35:08.738Z,5.38
2023-10-03T06:37:47.672Z,5.38
2023-10-03T06:40:17.650Z,4.68
2023-10-03T06:42:51.793Z,4.40
2023-10-03T06:45:22.766Z,4.53
2023-10-03T06:47:59.709Z,4.47
2023-10-03T06:50:33.276Z,5.18
2023-10-03T06:53:11.567Z,3.95
2023-10-03T06:55:45.695Z,4.13
2023-10-03T06:58:19.752Z,3.85
2023-10-03T07:01:04.275Z,3.90
2023-10-03T07:03:50.608Z,3.80
2023-10-03T07:06:27.617Z,4.00
2023-10-03T07:09:15.783Z,4.00
2023-10-03T07:11:48.652Z,3.85
2023-10-03T07:14:26.842Z,4.28
2023-10-03T07:17:01.889Z,3.90
2023-10-03T07:19:38.754Z,3.80
2023-10-03T07:22:14.821Z,3.72
2023-10-03T07:24:49.661Z,3.70
2023-10-03T07:27:27.545Z,4.13
2023-10-03T07:29:59.941Z,3.55
2023-10-03T07:32:33.736Z,3.78
2023-10-03T07:35:01.754Z,4.07
2023-10-03T07:37:41.620Z,4.10
2023-10-03T07:40:20.082Z,4.13
2023-10-03T07:42:57.606Z,4.35
2023-10-03T07:45:27.899Z,4.85
2023-10-03T07:48:03.690Z,4.38
2023-10-03T07:50:34.180Z,4.72
2023-10-03T07:53:14.304Z,4.43
2023-10-03T07:55:44.903Z,4.95
2023-10-03T07:58:38.247Z,4.07
2023-10-03T08:01:15.152Z,4.50
2023-10-03T08:03:51.773Z,4.22
2023-10-03T08:06:22.892Z,4.57
2023-10-03T08:09:11.227Z,4.82
2023-10-03T08:11:48.011Z,5.20
2023-10-03T08:14:44.972Z,4.75
2023-10-03T08:17:39.833Z,5.10
2023-10-03T08:20:11.300Z,4.82
2023-10-03T08:22:52.666Z,4.65
2023-10-03T08:25:45.438Z,4.95
2023-10-03T08:31:05.667Z,4.85
2023-10-03T08:33:45.312Z,4.25
2023-10-03T08:36:44.796Z,4.05
2023-10-03T08:39:23.952Z,3.75
2023-10-03T08:42:25.711Z,3.85
2023-10-03T08:45:00.247Z,3.20
2023-10-03T08:47:44.766Z,3.30
2023-10-03T08:50:31.251Z,2.92
2023-10-03T08:53:22.982Z,3.10
2023-10-03T08:55:58.527Z,3.58
2023-10-03T08:58:41.197Z,3.13
2023-10-03T09:01:19.156Z,3.35
2023-10-03T09:03:59.951Z,3.20
2023-10-03T09:06:46.027Z,3.00
2023-10-03T09:09:44.989Z,2.85
2023-10-03T09:12:21.944Z,2.92
2023-10-03T09:15:01.859Z,2.83
2023-10-03T09:17:39.730Z,2.47
2023-10-03T09:20:23.119Z,2.15
2023-10-03T09:23:16.755Z,2.50
2023-10-03T09:25:47.662Z,2.40
2023-10-03T09:28:46.786Z,2.72
2023-10-03T09:31:17.747Z,2.65
2023-10-03T09:33:56.451Z,2.08
2023-10-03T09:36:38.845Z,1.90
2023-10-03T09:39:37.702Z,2.03
2023-10-03T09:42:13.709Z,2.08
2023-10-03T09:44:52.583Z,2.40
2023-10-03T09:47:39.328Z,1.95
2023-10-03T09:50:10.972Z,2.00
2023-10-03T09:52:52.795Z,2.20
2023-10-03T09:58:38.862Z,2.10
2023-10-03T10:01:19.866Z,1.38
2023-10-03T10:04:01.658Z,1.35
2023-10-03T10:07:00.920Z,1.73
2023-10-03T10:09:55.934Z,1.45
2023-10-03T10:12:32.687Z,1.55
2023-10-03T10:15:23.109Z,1.70
2023-10-03T10:17:55.924Z,1.85
2023-10-03T10:20:45.860Z,1.50
2023-10-03T10:23:15.117Z,1.40
2023-10-03T10:26:04.200Z,1.60
2023-10-03T10:28:46.820Z,1.50
2023-10-03T10:31:36.925Z,1.10
2023-10-03T10:34:37.574Z,1.10
2023-10-03T10:37:23.770Z,0.77
2023-10-03T10:40:17.264Z,1.40
2023-10-03T10:43:19.390Z,0.98
2023-10-03T10:46:33.976Z,0.90
2023-10-03T10:49:16.823Z,0.98
2023-10-03T10:51:59.307Z,1.15
2023-10-03T10:54:39.849Z,0.82
2023-10-03T10:57:12.301Z,0.80
2023-10-03T10:59:53.351Z,0.60
2023-10-03T11:02:35.438Z,1.15
2023-10-03T11:05:12.304Z,0.60
2023-10-03T11:07:58.917Z,0.90
2023-10-03T11:10:56.105Z,0.50
2023-10-03T11:13:34.908Z,0.70
2023-10-03T11:16:26.909Z,0.70
2023-10-03T11:21:50.609Z,0.50
2023-10-03T11:24:51.496Z,0.73
2023-10-03T11:27:48.000Z,0.80
2023-10-03T11:30:30.012Z,0.70
2023-10-03T11:33:06.918Z,0.80
2023-10-03T11:36:07.055Z,0.70
2023-10-03T11:39:08.900Z,0.90
2023-10-03T11:41:40.266Z,0.75
2023-10-03T11:44:55.106Z,0.70
2023-10-03T11:47:40.333Z,0.80
2023-10-03T11:50:09.545Z,0.50
2023-10-03T11:52:50.565Z,0.82
2023-10-03T11:55:25.847Z,0.45
2023-10-03T11:58:08.894Z,0.60
2023-10-03T12:00:37.614Z,0.52
2023-10-03T12:03:21.142Z,0.70
2023-10-03T12:05:58.650Z,0.65
2023-10-03T12:08:49.153Z,0.60
2023-10-03T12:11:21.493Z,0.77
2023-10-03T12:13:57.436Z,5.53
2023-10-03T12:19:31.794Z,0.80
2023-10-03T12:22:16.992Z,0.75
2023-10-03T12:24:55.734Z,0.98
2023-10-03T12:27:25.294Z,1.10
2023-10-03T12:30:01.269Z,0.90
2023-10-03T12:32:28.690Z,0.93
2023-10-03T12:37:47.932Z,1.70
2023-10-03T12:40:30.914Z,1.60
2023-10-03T12:42:58.672Z,2.00
2023-10-03T12:48:40.899Z,2.35
2023-10-03T12:53:58.512Z,2.20
2023-10-03T12:56:35.832Z,2.00
2023-10-03T12:59:05.763Z,2.72
2023-10-03T13:01:42.092Z,1.95
2023-10-03T13:04:13.383Z,2.97
2023-10-03T13:06:50.308Z,2.70
2023-10-03T13:09:39.143Z,6.67
2023-10-03T13:12:15.209Z,2.75
2023-10-03T13:14:54.330Z,2.03
2023-10-03T13:17:30.597Z,2.28
2023-10-03T13:20:20.762Z,2.33
2023-10-03T13:23:02.998Z,2.35
2023-10-03T13:25:35.075Z,2.17
2023-10-03T13:28:12.387Z,2.20
2023-10-03T13:30:43.382Z,2.63
2023-10-03T13:33:24.520Z,2.30
2023-10-03T13:36:04.555Z,2.70
2023-10-03T13:38:40.964Z,2.50
2023-10-03T13:41:19.138Z,8.77
2023-10-03T13:43:54.142Z,2.55
2023-10-03T13:46:27.981Z,3.53
2023-10-03T13:52:02.885Z,2.92
2023-10-03T13:54:41.562Z,2.25
2023-10-03T13:57:24.045Z,2.50
2023-10-03T13:59:54.910Z,3.47
2023-10-03T14:02:35.780Z,2.97
2023-10-03T14:05:07.889Z,2.80
2023-10-03T14:07:46.250Z,3.00
2023-10-03T14:10:26.687Z,2.72
2023-10-03T14:13:01.208Z,2.92
2023-10-03T14:15:33.982Z,2.30
2023-10-03T14:18:13.946Z,3.17
2023-10-03T14:20:55.686Z,3.00
2023-10-03T14:23:52.429Z,2.78
2023-10-03T14:26:29.029Z,2.83
2023-10-03T14:29:06.435Z,2.38
2023-10-03T14:31:35.306Z,2.90
2023-10-03T14:34:17.113Z,2.85
2023-10-03T14:36:48.460Z,2.35
2023-10-03T14:39:49.080Z,2.78
2023-10-03T14:42:23.346Z,2.80
2023-10-03T14:45:07.296Z,2.80
2023-10-03T14:47:43.165Z,2.10
2023-10-03T14:50:24.318Z,2.47
2023-10-03T14:52:52.653Z,2.10
2023-10-03T14:55:31.573Z,2.28
2023-10-03T14:58:01.868Z,2.13
2023-10-03T15:00:43.814Z,2.85
2023-10-03T15:03:16.724Z,2.08
2023-10-03T15:06:03.152Z,2.70
2023-10-03T15:08:42.968Z,2.47
2023-10-03T15:11:27.162Z,2.60
2023-10-03T15:14:05.532Z,2.50
2023-10-03T15:16:43.068Z,2.10
2023-10-03T15:19:10.688Z,2.10
2023-10-03T15:21:49.444Z,2.67
2023-10-03T15:24:29.028Z,9.30
2023-10-03T15:27:02.872Z,2.30
2023-10-03T15:29:38.037Z,2.22
2023-10-03T15:32:06.156Z,1.67
2023-10-03T15:34:49.233Z,2.50
2023-10-03T15:37:19.458Z,1.77
2023-10-03T15:40:03.602Z,2.13
2023-10-03T15:42:35.960Z,1.70
2023-10-03T15:45:22.025Z,2.10
2023-10-03T15:47:49.809Z,2.00
2023-10-03T15:50:28.170Z,2.33
2023-10-03T15:52:58.996Z,2.00
2023-10-03T15:55:38.951Z,1.80
2023-10-03T15:58:09.860Z,1.75
2023-10-03T16:01:03.941Z,2.10
2023-10-03T16:03:35.216Z,1.88
2023-10-03T16:06:13.047Z,2.25
2023-10-03T16:08:45.938Z,1.98
2023-10-03T16:11:25.334Z,2.25
2023-10-03T16:13:54.567Z,2.20
2023-10-03T16:16:32.251Z,1.70
2023-10-03T16:18:59.821Z,1.92
2023-10-03T16:22:08.204Z,1.88
2023-10-03T16:24:43.010Z,2.40
2023-10-03T16:27:20.219Z,2.30
2023-10-03T16:29:50.311Z,2.40
2023-10-03T16:32:31.326Z,1.83
2023-10-03T16:35:14.047Z,2.00
2023-10-03T16:37:41.743Z,2.30
2023-10-03T16:43:58.370Z,2.22
2023-10-03T16:46:33.197Z,2.38
2023-10-03T16:49:03.939Z,2.40
2023-10-03T16:51:38.175Z,2.35
2023-10-03T16:54:19.439Z,2.45
2023-10-03T16:56:59.042Z,2.17
2023-10-03T16:59:39.928Z,2.22
2023-10-03T17:02:17.171Z,2.72
2023-10-03T17:04:54.541Z,2.60
2023-10-03T17:07:27.722Z,2.20
2023-10-03T17:10:02.313Z,3.33
2023-10-03T17:12:46.371Z,2.47
2023-10-03T17:15:24.208Z,2.83
2023-10-03T17:18:00.945Z,2.78
2023-10-03T17:20:39.175Z,2.78
2023-10-03T17:23:18.224Z,2.55
2023-10-03T17:25:59.505Z,2.50
2023-10-03T17:28:41.902Z,2.30
2023-10-03T17:31:22.354Z,2.60
2023-10-03T17:33:55.614Z,2.20
2023-10-03T17:36:39.662Z,2.70
2023-10-03T17:39:15.607Z,2.47
2023-10-03T17:42:00.391Z,2.53
2023-10-03T17:44:32.662Z,2.58
2023-10-03T17:47:07.333Z,2.50
2023-10-03T17:49:42.788Z,2.28
2023-10-03T17:52:23.250Z,2.92
2023-10-03T17:54:57.110Z,2.75
2023-10-03T17:57:32.893Z,2.50
2023-10-03T18:00:13.898Z,2.40
2023-10-03T18:02:54.717Z,2.80
2023-10-03T18:05:34.274Z,3.22
2023-10-03T18:08:04.830Z,2.63
2023-10-03T18:11:00.419Z,2.50
2023-10-03T18:13:55.036Z,2.20
2023-10-03T18:16:29.780Z,2.80
2023-10-03T18:19:11.211Z,2.63
2023-10-03T18:21:47.428Z,2.33
2023-10-03T18:24:25.151Z,2.97
2023-10-03T18:29:42.460Z,3.15
2023-10-03T18:32:23.288Z,2.67
2023-10-03T18:35:00.782Z,3.03
2023-10-03T18:37:37.147Z,2.83
2023-10-03T18:40:13.747Z,2.70
2023-10-03T18:42:49.111Z,2.58
2023-10-03T18:45:18.745Z,2.35
2023-10-03T18:47:59.688Z,2.72
2023-10-03T18:50:28.599Z,2.60
2023-10-03T18:53:09.198Z,2.70
2023-10-03T18:55:45.840Z,2.50
2023-10-03T18:58:25.215Z,2.80
2023-10-03T19:00:57.741Z,2.50
2023-10-03T19:03:32.430Z,3.10
2023-10-03T19:06:15.761Z,2.90
2023-10-03T19:08:51.544Z,2.67
2023-10-03T19:11:47.215Z,2.90
2023-10-03T19:14:24.853Z,2.42
2023-10-03T19:16:56.775Z,2.83
2023-10-03T19:19:34.645Z,2.80
2023-10-03T19:22:14.990Z,2.80
2023-10-03T19:25:24.902Z,2.50
2023-10-03T19:27:53.145Z,2.72
2023-10-03T19:30:39.068Z,2.92
2023-10-03T19:33:07.227Z,3.33
2023-10-03T19:35:52.837Z,3.00
2023-10-03T19:38:23.206Z,3.40
2023-10-03T19:41:03.869Z,3.08
2023-10-03T19:43:38.240Z,3.08
2023-10-03T19:49:01.267Z,2.78
2023-10-03T19:51:41.431Z,3.03
2023-10-03T19:54:09.740Z,2.97
2023-10-03T19:56:44.415Z,2.85
2023-10-03T19:59:24.192Z,3.08
2023-10-03T20:02:04.956Z,3.20
2023-10-03T20:04:44.924Z,4.97
2023-10-03T20:07:25.530Z,3.92
2023-10-03T20:10:05.474Z,3.78
2023-10-03T20:12:39.738Z,3.50
2023-10-03T20:15:30.889Z,2.53
2023-10-03T20:18:02.895Z,3.47
2023-10-03T20:20:38.392Z,3.10
2023-10-03T20:23:08.266Z,3.00
2023-10-03T20:25:51.620Z,3.13
2023-10-03T20:28:25.696Z,3.35
2023-10-03T20:31:05.179Z,3.15
2023-10-03T20:33:35.705Z,2.95
2023-10-03T20:36:16.237Z,2.92
2023-10-03T20:38:50.728Z,3.00
2023-10-03T20:41:31.157Z,3.00
2023-10-03T20:44:02.520Z,2.47
2023-10-03T20:46:38.114Z,2.65
2023-10-03T20:49:06.436Z,3.05
2023-10-03T20:51:47.192Z,2.65
2023-10-03T20:54:15.885Z,2.83
2023-10-03T20:56:54.755Z,2.95
2023-10-03T20:59:26.466Z,2.53
2023-10-03T21:02:02.551Z,2.60
2023-10-03T21:04:34.530Z,2.80
2023-10-03T21:07:12.815Z,3.00
2023-10-03T21:09:43.967Z,3.50
2023-10-03T21:12:25.669Z,3.50
2023-10-03T21:15:00.131Z,6.78
2023-10-03T21:17:47.456Z,13.13
2023-10-03T21:20:36.866Z,6.55
2023-10-03T21:23:18.342Z,3.15
2023-10-03T21:25:51.148Z,3.22
2023-10-03T21:28:32.017Z,3.00
2023-10-03T21:31:03.263Z,3.00
2023-10-03T21:33:46.141Z,3.55
2023-10-03T21:36:27.425Z,3.75
2023-10-03T21:39:48.617Z,3.20
2023-10-03T21:42:29.329Z,3.55
2023-10-03T21:45:00.753Z,3.75
2023-10-03T21:47:39.254Z,3.28
2023-10-03T21:50:08.002Z,3.95
2023-10-03T21:52:53.456Z,3.95
2023-10-03T21:55:40.855Z,3.90
2023-10-03T21:58:09.499Z,4.55
2023-10-03T22:03:51.468Z,3.80
2023-10-03T22:06:29.429Z,3.47
2023-10-03T22:08:58.498Z,3.55
2023-10-03T22:11:43.830Z,3.72
2023-10-03T22:14:21.870Z,3.65
2023-10-03T22:16:53.476Z,3.50
2023-10-03T22:19:31.129Z,3.45
2023-10-03T22:21:59.577Z,3.40
2023-10-03T22:24:40.006Z,3.30
2023-10-03T22:32:48.841Z,3.78
2023-10-03T22:35:25.959Z,3.25
2023-10-03T22:38:07.218Z,4.03
2023-10-03T22:43:45.494Z,3.22
2023-10-03T22:46:23.939Z,3.80
2023-10-03T22:48:54.494Z,3.83
2023-10-03T22:51:32.656Z,3.85
2023-10-03T22:54:04.181Z,3.17
2023-10-03T22:56:42.461Z,3.75
2023-10-03T22:59:15.136Z,3.70
2023-10-03T23:02:24.014Z,3.45
2023-10-03T23:07:47.525Z,3.65
2023-10-03T23:10:22.971Z,3.70
2023-10-03T23:13:38.832Z,4.25
2023-10-03T23:16:30.978Z,3.33
2023-10-03T23:22:43.158Z,3.83
2023-10-03T23:25:29.063Z,3.28
2023-10-03T23:28:08.755Z,3.92
2023-10-03T23:31:08.703Z,3.78
2023-10-03T23:33:46.308Z,4.28
2023-10-03T23:36:19.893Z,3.70
2023-10-03T23:38:54.526Z,3.65
2023-10-03T23:41:29.738Z,3.80
2023-10-03T23:43:58.979Z,4.07
2023-10-03T23:46:35.673Z,4.13
2023-10-03T23:49:16.076Z,4.25
